createdAt,value
2023-11-13T00:00:12.663Z,5.90
2023-11-13T00:02:41.776Z,5.91
2023-11-13T00:05:10.477Z,5.95
2023-11-13T00:07:39.052Z,6.00
2023-11-13T00:10:10.640Z,6.03
2023-11-13T00:12:39.972Z,6.06
2023-11-13T00:15:09.464Z,6.08
2023-11-13T00:17:37.840Z,6.10
2023-11-13T00:20:08.144Z,6.11
2023-11-13T00:22:36.593Z,6.11
2023-11-13T00:25:06.287Z,6.08
2023-11-13T00:27:36.195Z,6.08
2023-11-13T00:30:05.690Z,6.06
2023-11-13T00:32:34.173Z,6.02
2023-11-13T00:35:02.622Z,6.03
2023-11-13T00:37:30.993Z,6.02
2023-11-13T00:39:59.479Z,6.02
2023-11-13T00:42:27.918Z,6.03
2023-11-13T00:44:57.652Z,6.04
2023-11-13T00:47:26.031Z,6.05
2023-11-13T00:49:54.598Z,6.08
2023-11-13T00:52:23.007Z,6.09
2023-11-13T00:54:50.440Z,6.09
2023-11-13T00:57:18.868Z,6.09
2023-11-13T00:59:47.226Z,6.08
2023-11-13T01:02:18.201Z,6.10
2023-11-13T01:04:46.900Z,6.13
2023-11-13T01:07:17.491Z,6.13
2023-11-13T01:09:46.911Z,6.15
2023-11-13T01:12:18.326Z,6.14
2023-11-13T01:14:47.035Z,6.12
2023-11-13T01:17:16.896Z,6.10
2023-11-13T01:19:45.404Z,6.08
2023-11-13T01:22:14.601Z,6.06
2023-11-13T01:24:43.200Z,6.06
2023-11-13T01:27:11.672Z,6.07
2023-11-13T01:29:40.171Z,6.08
2023-11-13T01:32:08.812Z,6.10
2023-11-13T01:34:38.789Z,6.13
2023-11-13T01:37:07.339Z,6.13
2023-11-13T01:39:36.020Z,6.13
2023-11-13T01:42:04.564Z,6.16
2023-11-13T01:44:33.318Z,6.20
2023-11-13T01:47:01.939Z,6.24
2023-11-13T01:49:30.981Z,6.26
2023-11-13T01:52:01.992Z,6.29
2023-11-13T01:54:31.031Z,6.32
2023-11-13T01:57:03.420Z,6.34
2023-11-13T01:59:32.126Z,6.34
2023-11-13T02:02:01.921Z,6.35
2023-11-13T02:04:30.402Z,6.37
2023-11-13T02:07:01.300Z,6.38
2023-11-13T02:09:31.911Z,6.39
2023-11-13T02:12:00.470Z,6.41
2023-11-13T02:14:28.929Z,6.41
2023-11-13T02:17:03.285Z,6.43
2023-11-13T02:19:31.885Z,6.46
2023-11-13T02:22:01.762Z,6.47
2023-11-13T02:24:31.752Z,6.49
2023-11-13T02:27:00.275Z,6.52
2023-11-13T02:29:28.850Z,6.54
2023-11-13T02:31:58.274Z,6.57
2023-11-13T02:34:26.799Z,6.59
2023-11-13T02:36:55.728Z,6.63
2023-11-13T02:39:24.171Z,6.65
2023-11-13T02:41:56.287Z,6.64
2023-11-13T02:44:24.709Z,6.63
2023-11-13T02:46:53.161Z,6.62
2023-11-13T02:49:22.239Z,6.60
2023-11-13T02:51:50.758Z,6.59
2023-11-13T02:54:21.230Z,6.58
2023-11-13T02:56:49.836Z,6.57
2023-11-13T02:59:20.266Z,6.55
2023-11-13T03:01:48.738Z,6.53
2023-11-13T03:04:17.265Z,6.49
2023-11-13T03:06:45.670Z,6.46
2023-11-13T03:09:14.069Z,6.41
2023-11-13T03:11:42.490Z,6.37
2023-11-13T03:14:09.934Z,6.35
2023-11-13T03:16:39.768Z,6.30
2023-11-13T03:19:08.220Z,6.27
2023-11-13T03:21:36.738Z,6.26
2023-11-13T03:24:05.556Z,6.24
2023-11-13T03:26:33.948Z,6.23
2023-11-13T03:29:02.846Z,6.23
2023-11-13T03:31:31.374Z,6.22
2023-11-13T03:34:01.189Z,6.24
2023-11-13T03:36:30.172Z,6.24
2023-11-13T03:38:58.647Z,6.26
2023-11-13T03:41:26.995Z,6.25
2023-11-13T03:43:55.402Z,6.27
2023-11-13T03:46:23.846Z,6.29
2023-11-13T03:48:52.335Z,6.30
2023-11-13T03:51:22.220Z,6.32
2023-11-13T03:53:50.549Z,6.31
2023-11-13T03:56:19.591Z,6.32
2023-11-13T03:58:48.283Z,6.32
2023-11-13T04:01:18.431Z,6.32
2023-11-13T04:03:47.104Z,6.34
2023-11-13T04:06:15.628Z,6.35
2023-11-13T04:08:45.535Z,6.39
2023-11-13T04:11:13.936Z,6.39
2023-11-13T04:13:42.448Z,6.38
2023-11-13T04:16:10.865Z,6.39
2023-11-13T04:18:39.302Z,6.39
2023-11-13T04:21:07.754Z,6.40
2023-11-13T04:23:36.153Z,6.41
2023-11-13T04:26:06.301Z,6.42
2023-11-13T04:28:37.091Z,6.44
2023-11-13T04:31:07.607Z,6.45
2023-11-13T04:33:36.789Z,6.48
2023-11-13T04:36:06.840Z,6.52
2023-11-13T04:38:37.759Z,6.55
2023-11-13T04:41:07.933Z,6.57
2023-11-13T04:43:37.316Z,6.58
2023-11-13T04:46:07.385Z,6.60
2023-11-13T04:48:36.020Z,6.61
2023-11-13T04:51:05.502Z,6.63
2023-11-13T04:53:33.922Z,6.64
2023-11-13T04:56:02.293Z,6.65
2023-11-13T04:58:33.714Z,6.65
2023-11-13T05:01:02.201Z,6.63
2023-11-13T05:03:35.044Z,6.64
2023-11-13T05:06:03.995Z,6.62
2023-11-13T05:08:32.994Z,6.62
2023-11-13T05:11:01.606Z,6.62
2023-11-13T05:13:31.403Z,6.62
2023-11-13T05:16:00.004Z,6.62
2023-11-13T05:18:28.488Z,6.62
2023-11-13T05:20:56.862Z,6.62
2023-11-13T05:23:26.355Z,6.64
2023-11-13T05:25:54.944Z,6.65
2023-11-13T05:28:23.855Z,6.66
2023-11-13T05:30:53.596Z,6.69
2023-11-13T05:33:22.232Z,6.71
2023-11-13T05:35:50.731Z,6.73
2023-11-13T05:38:19.058Z,6.75
2023-11-13T05:40:47.692Z,6.77
2023-11-13T05:43:16.072Z,6.79
2023-11-13T05:45:44.565Z,6.79
2023-11-13T05:48:14.501Z,6.79
2023-11-13T05:50:42.917Z,6.77
2023-11-13T05:53:11.288Z,6.78
2023-11-13T05:55:39.691Z,6.77
2023-11-13T05:58:08.227Z,6.80
2023-11-13T06:00:52.638Z,6.82
2023-11-13T06:03:25.040Z,6.83
2023-11-13T06:05:53.543Z,6.82
2023-11-13T06:08:21.910Z,6.83
2023-11-13T06:10:50.279Z,6.83
2023-11-13T06:13:18.720Z,6.83
2023-11-13T06:15:47.188Z,6.83
2023-11-13T06:18:15.552Z,6.83
2023-11-13T06:20:49.249Z,6.85
2023-11-13T06:23:17.691Z,6.86
2023-11-13T06:25:47.126Z,6.88
2023-11-13T06:28:16.259Z,6.89
2023-11-13T06:30:45.202Z,6.89
2023-11-13T06:33:13.569Z,6.90
2023-11-13T06:35:42.015Z,6.92
2023-11-13T06:38:12.154Z,6.93
2023-11-13T06:40:42.266Z,6.96
2023-11-13T06:43:10.825Z,6.99
2023-11-13T06:45:39.216Z,7.02
2023-11-13T06:48:07.666Z,7.06
2023-11-13T06:50:37.793Z,7.07
2023-11-13T06:53:06.153Z,7.09
2023-11-13T06:55:35.915Z,7.10
2023-11-13T06:58:04.914Z,7.13
2023-11-13T07:00:33.317Z,7.15
2023-11-13T07:03:01.790Z,7.16
2023-11-13T07:05:30.266Z,7.18
2023-11-13T07:07:58.787Z,7.19
2023-11-13T07:10:33.120Z,7.20
2023-11-13T07:13:02.954Z,7.23
2023-11-13T07:15:31.400Z,7.24
2023-11-13T07:17:59.925Z,7.24
2023-11-13T07:20:28.348Z,7.25
2023-11-13T07:22:57.078Z,7.25
2023-11-13T07:25:25.575Z,7.25
2023-11-13T07:27:53.989Z,7.27
2023-11-13T07:30:23.962Z,7.27
2023-11-13T07:32:52.441Z,7.24
2023-11-13T07:35:21.240Z,7.22
2023-11-13T07:37:49.902Z,7.22
2023-11-13T07:40:20.092Z,7.21
2023-11-13T07:42:49.756Z,7.20
2023-11-13T07:45:18.596Z,7.22
2023-11-13T07:47:48.436Z,7.26
2023-11-13T07:50:16.773Z,7.27
2023-11-13T07:52:46.447Z,7.28
2023-11-13T07:55:16.323Z,7.29
2023-11-13T07:57:45.811Z,7.31
2023-11-13T08:00:17.616Z,7.33
2023-11-13T08:02:46.562Z,7.36
2023-11-13T08:05:21.410Z,7.41
2023-11-13T08:07:52.399Z,7.46
2023-11-13T08:10:21.201Z,7.50
2023-11-13T08:12:51.294Z,7.57
2023-11-13T08:15:19.808Z,7.67
2023-11-13T08:17:53.881Z,7.72
2023-11-13T08:20:28.132Z,7.79
2023-11-13T08:22:58.795Z,7.89
2023-11-13T08:25:29.324Z,8.02
2023-11-13T08:27:58.811Z,8.13
2023-11-13T08:30:27.202Z,8.21
2023-11-13T08:32:55.634Z,8.32
2023-11-13T08:35:26.247Z,8.41
2023-11-13T08:37:54.834Z,8.47
2023-11-13T08:40:25.989Z,8.47
2023-11-13T08:42:54.900Z,8.43
2023-11-13T08:45:23.472Z,8.35
2023-11-13T08:47:53.028Z,8.26
2023-11-13T08:50:23.148Z,8.21
2023-11-13T08:52:55.029Z,8.17
2023-11-13T08:55:24.380Z,8.13
2023-11-13T08:57:53.019Z,8.08
2023-11-13T09:00:23.504Z,8.04
2023-11-13T09:02:55.212Z,8.01
2023-11-13T09:05:26.971Z,7.96
2023-11-13T09:07:58.078Z,7.91
2023-11-13T09:10:29.014Z,7.85
2023-11-13T09:13:00.796Z,7.81
2023-11-13T09:15:31.698Z,7.77
2023-11-13T09:18:02.840Z,7.73
2023-11-13T09:20:31.484Z,7.68
2023-11-13T09:23:07.775Z,7.68
2023-11-13T09:25:36.262Z,7.67
2023-11-13T09:28:06.338Z,7.64
2023-11-13T09:30:35.344Z,7.62
2023-11-13T09:33:06.332Z,7.60
2023-11-13T09:35:37.637Z,7.57
2023-11-13T09:38:10.631Z,7.54
2023-11-13T09:40:39.328Z,7.53
2023-11-13T09:43:15.645Z,7.53
2023-11-13T09:45:46.654Z,7.53
2023-11-13T09:48:18.040Z,7.53
2023-11-13T09:50:46.603Z,7.52
2023-11-13T09:53:18.422Z,7.51
2023-11-13T09:55:48.717Z,7.51
2023-11-13T09:58:17.598Z,7.52
2023-11-13T10:00:46.803Z,7.53
2023-11-13T10:03:16.670Z,7.55
2023-11-13T10:05:46.324Z,7.54
2023-11-13T10:08:16.801Z,7.53
2023-11-13T10:10:46.938Z,7.53
2023-11-13T10:13:22.897Z,7.51
2023-11-13T10:15:51.595Z,7.51
2023-11-13T10:18:30.249Z,7.51
2023-11-13T10:21:00.725Z,7.54
2023-11-13T10:23:37.125Z,7.57
2023-11-13T10:26:06.027Z,7.61
2023-11-13T10:28:38.867Z,7.65
2023-11-13T10:31:14.403Z,7.69
2023-11-13T10:33:43.304Z,7.75
2023-11-13T10:36:19.419Z,7.81
2023-11-13T10:38:52.249Z,7.87
2023-11-13T10:41:23.424Z,7.93
2023-11-13T10:43:51.923Z,7.98
2023-11-13T10:46:30.915Z,8.04
2023-11-13T10:49:01.310Z,8.09
2023-11-13T10:51:32.019Z,8.14
2023-11-13T10:54:05.525Z,8.19
2023-11-13T10:56:36.185Z,8.23
2023-11-13T10:59:06.233Z,8.26
2023-11-13T11:01:38.819Z,8.31
2023-11-13T11:04:08.426Z,8.35
2023-11-13T11:06:51.160Z,8.39
2023-11-13T11:09:20.391Z,8.43
2023-11-13T11:11:51.614Z,8.46
2023-11-13T11:14:23.598Z,8.49
2023-11-13T11:16:59.112Z,8.53
2023-11-13T11:19:32.069Z,8.57
2023-11-13T11:22:11.399Z,8.60
2023-11-13T11:24:59.456Z,8.63
2023-11-13T11:27:38.871Z,8.65
2023-11-13T11:30:36.447Z,8.68
2023-11-13T11:33:07.539Z,8.69
2023-11-13T11:35:42.365Z,8.73
2023-11-13T11:38:23.939Z,8.76
2023-11-13T11:40:53.014Z,8.77
2023-11-13T11:43:22.972Z,8.79
2023-11-13T11:45:55.138Z,8.82
2023-11-13T11:48:24.595Z,8.86
2023-11-13T11:50:54.332Z,8.90
2023-11-13T11:53:24.811Z,8.94
2023-11-13T11:55:53.409Z,9.00
2023-11-13T11:58:21.917Z,9.04
2023-11-13T12:00:50.614Z,9.08
2023-11-13T12:03:20.304Z,9.12
2023-11-13T12:05:49.631Z,9.14
2023-11-13T12:08:18.178Z,9.17
2023-11-13T12:10:47.947Z,9.19
2023-11-13T12:13:20.021Z,9.20
2023-11-13T12:15:49.977Z,9.22
2023-11-13T12:18:19.872Z,9.25
2023-11-13T12:20:48.446Z,9.29
2023-11-13T12:23:17.269Z,9.31
2023-11-13T12:25:47.413Z,9.33
2023-11-13T12:28:16.362Z,9.36
2023-11-13T12:30:44.978Z,9.37
2023-11-13T12:33:13.623Z,9.38
2023-11-13T12:35:42.291Z,9.41
2023-11-13T12:38:10.855Z,9.43
2023-11-13T12:40:39.981Z,9.48
2023-11-13T12:43:10.332Z,9.52
2023-11-13T12:45:40.060Z,9.55
2023-11-13T12:48:11.792Z,9.58
2023-11-13T12:50:42.054Z,9.62
2023-11-13T12:53:14.649Z,9.65
2023-11-13T12:55:44.668Z,9.69
2023-11-13T12:58:17.799Z,9.71
2023-11-13T13:00:46.414Z,9.75
2023-11-13T13:03:15.008Z,9.80
2023-11-13T13:05:45.149Z,9.82
2023-11-13T13:08:13.772Z,9.84
2023-11-13T13:10:43.060Z,9.86
2023-11-13T13:13:12.115Z,9.89
2023-11-13T13:15:42.103Z,9.89
2023-11-13T13:18:10.594Z,9.92
2023-11-13T13:20:39.000Z,9.94
2023-11-13T13:23:07.742Z,9.97
2023-11-13T13:25:37.718Z,9.96
2023-11-13T13:28:10.883Z,9.97
2023-11-13T13:30:41.727Z,9.99
2023-11-13T13:33:12.702Z,10.00
2023-11-13T13:35:41.847Z,9.99
2023-11-13T13:38:12.166Z,9.99
2023-11-13T13:40:43.201Z,9.99
2023-11-13T13:43:12.971Z,9.99
2023-11-13T13:45:46.639Z,9.99
2023-11-13T13:48:15.642Z,10.00
2023-11-13T13:50:44.190Z,9.99
2023-11-13T13:53:16.337Z,9.98
2023-11-13T13:55:45.475Z,9.95
2023-11-13T13:58:14.420Z,9.95
2023-11-13T14:00:44.387Z,9.95
2023-11-13T14:03:14.591Z,9.93
2023-11-13T14:05:45.859Z,9.92
2023-11-13T14:08:18.004Z,9.91
2023-11-13T14:10:52.031Z,9.90
2023-11-13T14:13:23.735Z,9.86
2023-11-13T14:16:04.170Z,9.86
2023-11-13T14:18:39.792Z,9.86
2023-11-13T14:21:13.731Z,9.88
2023-11-13T14:23:43.960Z,9.89
2023-11-13T14:26:15.798Z,9.86
2023-11-13T14:28:44.326Z,9.88
2023-11-13T14:31:15.705Z,9.87
2023-11-13T14:33:48.044Z,9.89
2023-11-13T14:36:17.928Z,9.88
2023-11-13T14:38:46.448Z,9.90
2023-11-13T14:41:14.962Z,9.92
2023-11-13T14:43:44.066Z,9.94
2023-11-13T14:46:14.465Z,9.94
2023-11-13T14:48:42.912Z,9.93
2023-11-13T14:51:11.324Z,9.95
2023-11-13T14:53:39.723Z,9.98
2023-11-13T14:56:10.641Z,9.95
2023-11-13T14:58:39.779Z,9.95
2023-11-13T15:01:08.523Z,9.92
2023-11-13T15:03:38.842Z,9.91
2023-11-13T15:06:09.650Z,9.92
2023-11-13T15:08:38.050Z,9.92
2023-11-13T15:11:11.138Z,9.95
2023-11-13T15:13:40.918Z,9.95
2023-11-13T15:16:10.670Z,9.95
2023-11-13T15:18:47.863Z,9.93
2023-11-13T15:21:19.363Z,9.89
2023-11-13T15:23:48.326Z,9.88
2023-11-13T15:26:17.193Z,9.85
2023-11-13T15:28:45.846Z,9.84
2023-11-13T15:31:14.423Z,9.81
2023-11-13T15:33:44.219Z,9.79
2023-11-13T15:36:12.797Z,9.77
2023-11-13T15:38:42.594Z,9.76
2023-11-13T15:41:11.470Z,9.74
2023-11-13T15:43:39.960Z,9.72
2023-11-13T15:46:10.094Z,9.72
2023-11-13T15:48:39.870Z,9.71
2023-11-13T15:51:10.922Z,9.70
2023-11-13T15:53:40.085Z,9.69
2023-11-13T15:56:09.135Z,9.69
2023-11-13T15:58:37.555Z,9.70
2023-11-13T16:01:09.157Z,9.70
2023-11-13T16:03:43.970Z,9.71
2023-11-13T16:06:15.898Z,9.74
2023-11-13T16:08:45.011Z,9.76
2023-11-13T16:11:13.706Z,9.79
2023-11-13T16:13:45.434Z,9.82
2023-11-13T16:16:14.318Z,9.86
2023-11-13T16:18:42.915Z,9.90
2023-11-13T16:21:12.056Z,9.93
2023-11-13T16:23:42.437Z,9.95
2023-11-13T16:26:11.090Z,9.95
2023-11-13T16:28:39.741Z,9.95
2023-11-13T16:31:09.205Z,9.95
2023-11-13T16:33:38.181Z,9.95
2023-11-13T16:36:07.692Z,9.99
2023-11-13T16:38:36.922Z,10.01
2023-11-13T16:41:08.938Z,10.05
2023-11-13T16:43:37.548Z,10.08
2023-11-13T16:46:07.382Z,10.09
2023-11-13T16:48:36.098Z,10.09
2023-11-13T16:51:05.660Z,10.12
2023-11-13T16:53:36.569Z,10.12
2023-11-13T16:56:05.377Z,10.13
2023-11-13T16:58:35.170Z,10.16
2023-11-13T17:01:08.222Z,10.20
2023-11-13T17:03:38.362Z,10.23
2023-11-13T17:06:07.595Z,10.24
2023-11-13T17:08:36.148Z,10.25
2023-11-13T17:11:08.322Z,10.28
2023-11-13T17:13:38.790Z,10.30
2023-11-13T17:16:09.823Z,10.31
2023-11-13T17:18:39.189Z,10.32
2023-11-13T17:21:08.106Z,10.34
2023-11-13T17:23:36.898Z,10.34
2023-11-13T17:26:05.693Z,10.36
2023-11-13T17:28:35.693Z,10.40
2023-11-13T17:31:06.292Z,10.42
2023-11-13T17:33:34.700Z,10.47
2023-11-13T17:36:03.796Z,10.48
2023-11-13T17:38:32.385Z,10.49
2023-11-13T17:41:02.023Z,10.48
2023-11-13T17:43:30.859Z,10.49
2023-11-13T17:45:59.560Z,10.51
2023-11-13T17:48:29.429Z,10.55
2023-11-13T17:50:57.852Z,10.56
2023-11-13T17:53:26.311Z,10.58
2023-11-13T17:55:54.765Z,10.58
2023-11-13T17:58:23.487Z,10.60
2023-11-13T18:00:55.179Z,10.62
2023-11-13T18:03:23.748Z,10.66
2023-11-13T18:05:55.003Z,10.64
2023-11-13T18:08:27.369Z,10.68
2023-11-13T18:10:57.410Z,10.71
2023-11-13T18:13:27.432Z,10.74
2023-11-13T18:15:56.212Z,10.74
2023-11-13T18:18:27.363Z,10.71
2023-11-13T18:20:58.328Z,10.70
2023-11-13T18:23:26.739Z,10.69
2023-11-13T18:26:00.845Z,10.68
2023-11-13T18:28:29.915Z,10.65
2023-11-13T18:30:59.411Z,10.60
2023-11-13T18:33:30.886Z,10.59
2023-11-13T18:36:01.017Z,10.59
2023-11-13T18:38:29.489Z,10.58
2023-11-13T18:40:58.162Z,10.57
2023-11-13T18:43:26.886Z,10.57
2023-11-13T18:45:56.372Z,10.55
2023-11-13T18:48:25.297Z,10.55
2023-11-13T18:50:53.825Z,10.53
2023-11-13T18:53:24.566Z,10.53
2023-11-13T18:55:53.181Z,10.51
2023-11-13T18:58:21.836Z,10.49
2023-11-13T19:00:50.488Z,10.44
2023-11-13T19:03:19.095Z,10.43
2023-11-13T19:05:47.807Z,10.41
2023-11-13T19:08:16.866Z,10.41
2023-11-13T19:10:46.748Z,10.43
2023-11-13T19:13:15.290Z,10.46
2023-11-13T19:15:45.203Z,10.46
2023-11-13T19:18:14.381Z,10.44
2023-11-13T19:20:43.739Z,10.44
2023-11-13T19:23:12.501Z,10.45
2023-11-13T19:25:40.987Z,10.48
2023-11-13T19:28:10.920Z,10.53
2023-11-13T19:30:39.605Z,10.60
2023-11-13T19:33:08.286Z,10.62
2023-11-13T19:35:36.933Z,10.64
2023-11-13T19:38:06.585Z,10.68
2023-11-13T19:40:35.083Z,10.69
2023-11-13T19:43:04.545Z,10.73
2023-11-13T19:45:35.740Z,10.77
2023-11-13T19:48:05.051Z,10.81
2023-11-13T19:50:35.645Z,10.84
2023-11-13T19:53:06.231Z,10.88
2023-11-13T19:55:35.112Z,10.92
2023-11-13T19:58:05.970Z,10.94
2023-11-13T20:00:35.987Z,10.96
2023-11-13T20:03:05.878Z,10.96
2023-11-13T20:05:35.604Z,10.97
2023-11-13T20:08:06.250Z,10.99
2023-11-13T20:10:34.846Z,10.99
2023-11-13T20:13:03.562Z,10.97
2023-11-13T20:15:32.060Z,10.95
2023-11-13T20:18:01.943Z,10.93
2023-11-13T20:20:30.658Z,10.89
2023-11-13T20:22:59.229Z,10.89
2023-11-13T20:25:27.886Z,10.88
2023-11-13T20:27:56.498Z,10.89
2023-11-13T20:30:24.852Z,10.91
2023-11-13T20:32:53.312Z,10.94
2023-11-13T20:35:23.127Z,10.95
2023-11-13T20:37:51.691Z,10.92
2023-11-13T20:40:20.378Z,10.90
2023-11-13T20:42:48.934Z,10.88
2023-11-13T20:45:17.431Z,10.86
2023-11-13T20:47:46.391Z,10.86
2023-11-13T20:50:16.313Z,10.85
2023-11-13T20:52:46.190Z,10.84
2023-11-13T20:55:15.025Z,10.84
2023-11-13T20:57:45.301Z,10.86
2023-11-13T21:00:16.700Z,10.87
2023-11-13T21:02:45.389Z,10.88
2023-11-13T21:05:14.137Z,10.89
2023-11-13T21:07:42.616Z,10.87
2023-11-13T21:10:12.641Z,10.88
2023-11-13T21:12:41.059Z,10.90
2023-11-13T21:15:10.295Z,10.93
2023-11-13T21:17:38.711Z,10.94
2023-11-13T21:20:11.262Z,10.94
2023-11-13T21:22:41.157Z,10.96
2023-11-13T21:25:12.055Z,10.99
2023-11-13T21:27:41.925Z,11.01
2023-11-13T21:30:10.944Z,11.03
2023-11-13T21:32:39.905Z,11.04
2023-11-13T21:35:10.826Z,11.07
2023-11-13T21:37:40.986Z,11.10
2023-11-13T21:40:12.563Z,11.12
2023-11-13T21:42:43.562Z,11.12
2023-11-13T21:45:17.518Z,11.14
2023-11-13T21:47:47.071Z,11.13
2023-11-13T21:50:15.716Z,11.12
2023-11-13T21:52:44.996Z,11.08
2023-11-13T21:55:14.450Z,11.07
2023-11-13T21:57:44.388Z,11.04
2023-11-13T22:00:13.571Z,11.00
2023-11-13T22:02:42.451Z,10.99
2023-11-13T22:05:11.954Z,10.94
2023-11-13T22:07:42.001Z,10.92
2023-11-13T22:10:12.757Z,10.91
2023-11-13T22:12:42.479Z,10.89
2023-11-13T22:15:16.538Z,10.89
2023-11-13T22:17:48.059Z,10.88
2023-11-13T22:20:17.767Z,10.90
2023-11-13T22:22:47.400Z,10.93
2023-11-13T22:25:15.930Z,10.95
2023-11-13T22:27:44.359Z,10.97
2023-11-13T22:30:14.784Z,10.99
2023-11-13T22:32:43.479Z,10.99
2023-11-13T22:35:12.767Z,10.99
2023-11-13T22:37:41.536Z,10.98
2023-11-13T22:40:12.751Z,10.97
2023-11-13T22:42:43.243Z,10.97
2023-11-13T22:45:12.101Z,11.00
2023-11-13T22:47:42.357Z,11.04
2023-11-13T22:50:11.845Z,11.05
2023-11-13T22:52:40.414Z,11.08
2023-11-13T22:55:11.217Z,11.11
2023-11-13T22:57:39.592Z,11.15
2023-11-13T23:00:16.668Z,11.15
2023-11-13T23:02:46.842Z,11.16
2023-11-13T23:05:15.534Z,11.18
2023-11-13T23:07:46.628Z,11.17
2023-11-13T23:10:15.780Z,11.16
2023-11-13T23:12:44.242Z,11.17
2023-11-13T23:15:12.776Z,11.15
2023-11-13T23:17:42.032Z,11.17
2023-11-13T23:20:12.967Z,11.17
2023-11-13T23:22:41.701Z,11.20
2023-11-13T23:25:10.542Z,11.21
2023-11-13T23:27:40.578Z,11.21
2023-11-13T23:30:10.213Z,11.20
2023-11-13T23:32:39.004Z,11.19
2023-11-13T23:35:09.066Z,11.20
2023-11-13T23:37:38.861Z,11.18
2023-11-13T23:40:08.832Z,11.17
2023-11-13T23:42:37.744Z,11.16
2023-11-13T23:45:07.390Z,11.14
2023-11-13T23:47:36.406Z,11.13
2023-11-13T23:50:09.006Z,11.11
2023-11-13T23:52:39.671Z,11.08
2023-11-13T23:55:08.824Z,11.09
2023-11-13T23:57:37.231Z,11.08
